sensor_id;sensor_type;location;lat;lon;timestamp;P1;durP1;ratioP1;P2;durP2;ratioP2
60211;SDS011;46079;48.686;15.598;2023-03-14T00:01:22;4.93;;;1.30;;
60211;SDS011;46079;48.686;15.598;2023-03-14T00:03:48;4.78;;;1.40;;
60211;SDS011;46079;48.686;15.598;2023-03-14T00:06:14;3.90;;;1.27;;
60211;SDS011;46079;48.686;15.598;2023-03-14T00:08:40;5.05;;;1.38;;
60211;SDS011;46079;48.686;15.598;2023-03-14T00:11:07;4.65;;;1.38;;
60211;SDS011;46079;48.686;15.598;2023-03-14T00:13:34;4.13;;;1.20;;
60211;SDS011;46079;48.686;15.598;2023-03-14T00:16:06;3.75;;;1.10;;
60211;SDS011;46079;48.686;15.598;2023-03-14T00:18:34;4.50;;;1.30;;
60211;SDS011;46079;48.686;15.598;2023-03-14T00:21:00;4.88;;;1.40;;
60211;SDS011;46079;48.686;15.598;2023-03-14T00:23:27;5.72;;;1.17;;
60211;SDS011;46079;48.686;15.598;2023-03-14T00:25:59;4.50;;;1.45;;
60211;SDS011;46079;48.686;15.598;2023-03-14T00:28:29;3.92;;;1.23;;
60211;SDS011;46079;48.686;15.598;2023-03-14T00:30:54;5.18;;;1.40;;
60211;SDS011;46079;48.686;15.598;2023-03-14T00:33:20;5.32;;;1.55;;
60211;SDS011;46079;48.686;15.598;2023-03-14T00:35:55;4.28;;;1.40;;
60211;SDS011;46079;48.686;15.598;2023-03-14T00:38:22;6.10;;;1.52;;
60211;SDS011;46079;48.686;15.598;2023-03-14T00:40:49;6.55;;;1.50;;
60211;SDS011;46079;48.686;15.598;2023-03-14T00:43:15;4.78;;;1.30;;
60211;SDS011;46079;48.686;15.598;2023-03-14T00:45:41;3.92;;;1.33;;
60211;SDS011;46079;48.686;15.598;2023-03-14T00:48:06;4.68;;;1.27;;
60211;SDS011;46079;48.686;15.598;2023-03-14T00:50:32;5.07;;;1.35;;
60211;SDS011;46079;48.686;15.598;2023-03-14T00:52:57;5.40;;;1.42;;
60211;SDS011;46079;48.686;15.598;2023-03-14T00:55:23;5.28;;;1.40;;
60211;SDS011;46079;48.686;15.598;2023-03-14T00:57:49;5.38;;;1.50;;
60211;SDS011;46079;48.686;15.598;2023-03-14T01:00:14;5.93;;;1.70;;
60211;SDS011;46079;48.686;15.598;2023-03-14T01:02:40;5.75;;;1.40;;
60211;SDS011;46079;48.686;15.598;2023-03-14T01:05:05;4.30;;;1.30;;
60211;SDS011;46079;48.686;15.598;2023-03-14T01:07:32;4.18;;;1.20;;
60211;SDS011;46079;48.686;15.598;2023-03-14T01:09:58;3.60;;;1.17;;
60211;SDS011;46079;48.686;15.598;2023-03-14T01:12:23;4.32;;;1.30;;
60211;SDS011;46079;48.686;15.598;2023-03-14T01:14:49;4.18;;;1.30;;
60211;SDS011;46079;48.686;15.598;2023-03-14T01:17:14;5.07;;;1.50;;
60211;SDS011;46079;48.686;15.598;2023-03-14T01:19:39;3.50;;;1.20;;
60211;SDS011;46079;48.686;15.598;2023-03-14T01:22:05;3.95;;;1.15;;
60211;SDS011;46079;48.686;15.598;2023-03-14T01:24:30;2.70;;;1.00;;
60211;SDS011;46079;48.686;15.598;2023-03-14T01:26:56;5.40;;;1.50;;
60211;SDS011;46079;48.686;15.598;2023-03-14T01:29:21;4.05;;;1.13;;
60211;SDS011;46079;48.686;15.598;2023-03-14T01:31:46;6.03;;;1.50;;
60211;SDS011;46079;48.686;15.598;2023-03-14T01:34:12;4.60;;;1.40;;
60211;SDS011;46079;48.686;15.598;2023-03-14T01:36:37;3.60;;;1.15;;
60211;SDS011;46079;48.686;15.598;2023-03-14T01:39:03;5.80;;;1.50;;
60211;SDS011;46079;48.686;15.598;2023-03-14T01:41:31;4.80;;;1.20;;
60211;SDS011;46079;48.686;15.598;2023-03-14T01:43:57;6.72;;;1.52;;
60211;SDS011;46079;48.686;15.598;2023-03-14T01:49:36;4.95;;;1.30;;
60211;SDS011;46079;48.686;15.598;2023-03-14T01:51:44;5.78;;;1.40;;
60211;SDS011;46079;48.686;15.598;2023-03-14T01:54:19;4.22;;;1.27;;
60211;SDS011;46079;48.686;15.598;2023-03-14T01:59:31;5.03;;;1.42;;
60211;SDS011;46079;48.686;15.598;2023-03-14T02:01:58;5.30;;;1.35;;
60211;SDS011;46079;48.686;15.598;2023-03-14T02:04:24;4.43;;;1.20;;
60211;SDS011;46079;48.686;15.598;2023-03-14T02:09:39;4.13;;;1.33;;
60211;SDS011;46079;48.686;15.598;2023-03-14T02:12:07;7.07;;;1.40;;
60211;SDS011;46079;48.686;15.598;2023-03-14T02:14:35;4.80;;;1.30;;
60211;SDS011;46079;48.686;15.598;2023-03-14T02:17:03;3.80;;;1.35;;
60211;SDS011;46079;48.686;15.598;2023-03-14T02:19:35;4.45;;;1.10;;
60211;SDS011;46079;48.686;15.598;2023-03-14T02:22:12;4.90;;;1.25;;
60211;SDS011;46079;48.686;15.598;2023-03-14T02:24:54;4.20;;;1.15;;
60211;SDS011;46079;48.686;15.598;2023-03-14T02:27:34;4.18;;;1.30;;
60211;SDS011;46079;48.686;15.598;2023-03-14T02:30:01;3.45;;;1.10;;
60211;SDS011;46079;48.686;15.598;2023-03-14T02:32:27;4.32;;;1.30;;
60211;SDS011;46079;48.686;15.598;2023-03-14T02:34:56;4.28;;;1.23;;
60211;SDS011;46079;48.686;15.598;2023-03-14T02:37:24;4.13;;;1.30;;
60211;SDS011;46079;48.686;15.598;2023-03-14T02:40:07;5.50;;;1.20;;
60211;SDS011;46079;48.686;15.598;2023-03-14T02:42:33;4.20;;;1.17;;
60211;SDS011;46079;48.686;15.598;2023-03-14T02:47:29;5.10;;;1.50;;
60211;SDS011;46079;48.686;15.598;2023-03-14T02:49:58;4.60;;;1.27;;
60211;SDS011;46079;48.686;15.598;2023-03-14T02:52:27;4.47;;;1.35;;
60211;SDS011;46079;48.686;15.598;2023-03-14T02:54:52;6.82;;;1.30;;
60211;SDS011;46079;48.686;15.598;2023-03-14T02:57:18;3.88;;;1.00;;
60211;SDS011;46079;48.686;15.598;2023-03-14T02:59:43;3.38;;;1.05;;
60211;SDS011;46079;48.686;15.598;2023-03-14T03:02:09;4.68;;;1.02;;
60211;SDS011;46079;48.686;15.598;2023-03-14T03:04:34;4.03;;;1.15;;
60211;SDS011;46079;48.686;15.598;2023-03-14T03:06:59;3.45;;;1.20;;
60211;SDS011;46079;48.686;15.598;2023-03-14T03:09:25;4.45;;;1.20;;
60211;SDS011;46079;48.686;15.598;2023-03-14T03:11:50;3.83;;;1.10;;
60211;SDS011;46079;48.686;15.598;2023-03-14T03:14:15;5.50;;;1.30;;
60211;SDS011;46079;48.686;15.598;2023-03-14T03:16:41;4.28;;;1.15;;
60211;SDS011;46079;48.686;15.598;2023-03-14T03:19:06;4.78;;;1.10;;
60211;SDS011;46079;48.686;15.598;2023-03-14T03:21:32;3.33;;;1.15;;
60211;SDS011;46079;48.686;15.598;2023-03-14T03:23:57;3.42;;;1.00;;
60211;SDS011;46079;48.686;15.598;2023-03-14T03:26:22;4.88;;;1.30;;
60211;SDS011;46079;48.686;15.598;2023-03-14T03:28:50;4.43;;;1.30;;
60211;SDS011;46079;48.686;15.598;2023-03-14T03:31:16;4.63;;;1.20;;
60211;SDS011;46079;48.686;15.598;2023-03-14T03:33:41;3.28;;;1.00;;
60211;SDS011;46079;48.686;15.598;2023-03-14T03:36:07;4.10;;;1.17;;
60211;SDS011;46079;48.686;15.598;2023-03-14T03:38:33;4.95;;;1.20;;
60211;SDS011;46079;48.686;15.598;2023-03-14T03:41:01;3.38;;;1.10;;
60211;SDS011;46079;48.686;15.598;2023-03-14T03:43:28;4.07;;;1.20;;
60211;SDS011;46079;48.686;15.598;2023-03-14T03:45:54;3.88;;;1.13;;
60211;SDS011;46079;48.686;15.598;2023-03-14T03:48:19;4.53;;;1.20;;
60211;SDS011;46079;48.686;15.598;2023-03-14T03:50:45;5.35;;;1.42;;
60211;SDS011;46079;48.686;15.598;2023-03-14T03:53:11;4.40;;;1.25;;
60211;SDS011;46079;48.686;15.598;2023-03-14T03:55:36;3.72;;;1.30;;
60211;SDS011;46079;48.686;15.598;2023-03-14T03:58:02;3.80;;;1.17;;
60211;SDS011;46079;48.686;15.598;2023-03-14T04:00:27;3.30;;;1.20;;
60211;SDS011;46079;48.686;15.598;2023-03-14T04:02:52;5.35;;;1.33;;
60211;SDS011;46079;48.686;15.598;2023-03-14T04:05:18;4.85;;;1.20;;
60211;SDS011;46079;48.686;15.598;2023-03-14T04:07:43;3.97;;;1.10;;
60211;SDS011;46079;48.686;15.598;2023-03-14T04:10:09;4.38;;;1.38;;
60211;SDS011;46079;48.686;15.598;2023-03-14T04:12:34;3.97;;;1.30;;
60211;SDS011;46079;48.686;15.598;2023-03-14T04:15:00;4.05;;;1.30;;
60211;SDS011;46079;48.686;15.598;2023-03-14T04:17:25;4.68;;;1.40;;
60211;SDS011;46079;48.686;15.598;2023-03-14T04:19:50;4.10;;;1.25;;
60211;SDS011;46079;48.686;15.598;2023-03-14T04:22:18;3.90;;;1.20;;
60211;SDS011;46079;48.686;15.598;2023-03-14T04:24:44;4.43;;;1.50;;
60211;SDS011;46079;48.686;15.598;2023-03-14T04:27:09;3.53;;;1.00;;
60211;SDS011;46079;48.686;15.598;2023-03-14T04:29:35;4.60;;;1.27;;
60211;SDS011;46079;48.686;15.598;2023-03-14T04:32:00;4.18;;;1.20;;
60211;SDS011;46079;48.686;15.598;2023-03-14T04:34:25;6.40;;;1.30;;
60211;SDS011;46079;48.686;15.598;2023-03-14T04:36:51;3.67;;;1.10;;
60211;SDS011;46079;48.686;15.598;2023-03-14T04:39:16;4.57;;;1.33;;
60211;SDS011;46079;48.686;15.598;2023-03-14T04:41:42;4.55;;;1.23;;
60211;SDS011;46079;48.686;15.598;2023-03-14T04:44:07;3.53;;;1.10;;
60211;SDS011;46079;48.686;15.598;2023-03-14T04:46:32;3.67;;;1.10;;
60211;SDS011;46079;48.686;15.598;2023-03-14T04:48:58;4.70;;;1.15;;
60211;SDS011;46079;48.686;15.598;2023-03-14T04:51:23;5.25;;;1.40;;
60211;SDS011;46079;48.686;15.598;2023-03-14T04:53:52;5.65;;;1.40;;
60211;SDS011;46079;48.686;15.598;2023-03-14T04:56:18;4.65;;;1.08;;
60211;SDS011;46079;48.686;15.598;2023-03-14T04:58:43;6.88;;;1.65;;
60211;SDS011;46079;48.686;15.598;2023-03-14T05:01:09;3.33;;;1.00;;
60211;SDS011;46079;48.686;15.598;2023-03-14T05:03:35;3.92;;;1.20;;
60211;SDS011;46079;48.686;15.598;2023-03-14T05:06:02;3.63;;;1.17;;
60211;SDS011;46079;48.686;15.598;2023-03-14T05:08:28;3.80;;;1.05;;
60211;SDS011;46079;48.686;15.598;2023-03-14T05:10:54;4.35;;;1.25;;
60211;SDS011;46079;48.686;15.598;2023-03-14T05:13:20;5.82;;;1.30;;
60211;SDS011;46079;48.686;15.598;2023-03-14T05:15:46;5.03;;;1.38;;
60211;SDS011;46079;48.686;15.598;2023-03-14T05:18:11;4.18;;;1.27;;
60211;SDS011;46079;48.686;15.598;2023-03-14T05:20:37;4.72;;;1.30;;
60211;SDS011;46079;48.686;15.598;2023-03-14T05:23:02;4.22;;;1.30;;
60211;SDS011;46079;48.686;15.598;2023-03-14T05:25:27;3.22;;;1.08;;
60211;SDS011;46079;48.686;15.598;2023-03-14T05:27:53;5.88;;;1.50;;
60211;SDS011;46079;48.686;15.598;2023-03-14T05:30:20;5.15;;;1.30;;
60211;SDS011;46079;48.686;15.598;2023-03-14T05:32:46;3.85;;;1.20;;
60211;SDS011;46079;48.686;15.598;2023-03-14T05:35:12;4.15;;;1.17;;
60211;SDS011;46079;48.686;15.598;2023-03-14T05:37:38;4.03;;;1.30;;
60211;SDS011;46079;48.686;15.598;2023-03-14T05:40:04;6.15;;;1.60;;
60211;SDS011;46079;48.686;15.598;2023-03-14T05:42:31;8.23;;;1.80;;
60211;SDS011;46079;48.686;15.598;2023-03-14T05:44:57;7.63;;;2.10;;
60211;SDS011;46079;48.686;15.598;2023-03-14T05:47:22;9.25;;;2.40;;
60211;SDS011;46079;48.686;15.598;2023-03-14T05:49:48;7.43;;;2.40;;
60211;SDS011;46079;48.686;15.598;2023-03-14T05:52:13;8.18;;;2.80;;
60211;SDS011;46079;48.686;15.598;2023-03-14T05:54:39;7.13;;;2.30;;
60211;SDS011;46079;48.686;15.598;2023-03-14T05:57:04;8.02;;;2.47;;
60211;SDS011;46079;48.686;15.598;2023-03-14T05:59:29;8.48;;;2.95;;
60211;SDS011;46079;48.686;15.598;2023-03-14T06:01:55;8.77;;;2.50;;
60211;SDS011;46079;48.686;15.598;2023-03-14T06:04:20;9.68;;;2.30;;
60211;SDS011;46079;48.686;15.598;2023-03-14T06:06:46;9.15;;;2.30;;
60211;SDS011;46079;48.686;15.598;2023-03-14T06:09:11;7.88;;;2.50;;
60211;SDS011;46079;48.686;15.598;2023-03-14T06:11:36;8.50;;;2.30;;
60211;SDS011;46079;48.686;15.598;2023-03-14T06:14:02;6.72;;;2.03;;
60211;SDS011;46079;48.686;15.598;2023-03-14T06:16:27;7.45;;;2.00;;
60211;SDS011;46079;48.686;15.598;2023-03-14T06:18:53;6.80;;;1.90;;
60211;SDS011;46079;48.686;15.598;2023-03-14T06:21:18;7.18;;;2.08;;
60211;SDS011;46079;48.686;15.598;2023-03-14T06:23:44;8.32;;;2.35;;
60211;SDS011;46079;48.686;15.598;2023-03-14T06:26:10;8.02;;;2.00;;
60211;SDS011;46079;48.686;15.598;2023-03-14T06:28:37;6.68;;;2.20;;
60211;SDS011;46079;48.686;15.598;2023-03-14T06:31:02;8.05;;;2.08;;
60211;SDS011;46079;48.686;15.598;2023-03-14T06:33:28;6.88;;;1.90;;
60211;SDS011;46079;48.686;15.598;2023-03-14T06:35:54;6.85;;;1.98;;
60211;SDS011;46079;48.686;15.598;2023-03-14T06:38:19;7.00;;;2.08;;
60211;SDS011;46079;48.686;15.598;2023-03-14T06:40:45;7.43;;;1.85;;
60211;SDS011;46079;48.686;15.598;2023-03-14T06:43:10;9.70;;;2.10;;
60211;SDS011;46079;48.686;15.598;2023-03-14T06:45:36;8.07;;;2.10;;
60211;SDS011;46079;48.686;15.598;2023-03-14T06:48:01;8.52;;;2.03;;
60211;SDS011;46079;48.686;15.598;2023-03-14T06:50:27;7.57;;;2.08;;
60211;SDS011;46079;48.686;15.598;2023-03-14T06:52:53;7.07;;;1.83;;
60211;SDS011;46079;48.686;15.598;2023-03-14T06:55:18;8.98;;;1.80;;
60211;SDS011;46079;48.686;15.598;2023-03-14T06:57:44;5.50;;;1.52;;
60211;SDS011;46079;48.686;15.598;2023-03-14T07:00:10;7.25;;;1.95;;
60211;SDS011;46079;48.686;15.598;2023-03-14T07:02:36;5.93;;;1.90;;
60211;SDS011;46079;48.686;15.598;2023-03-14T07:05:02;6.03;;;1.77;;
60211;SDS011;46079;48.686;15.598;2023-03-14T07:07:28;7.82;;;2.00;;
60211;SDS011;46079;48.686;15.598;2023-03-14T07:09:54;5.57;;;1.73;;
60211;SDS011;46079;48.686;15.598;2023-03-14T07:12:19;7.25;;;1.85;;
60211;SDS011;46079;48.686;15.598;2023-03-14T07:14:44;6.53;;;1.70;;
60211;SDS011;46079;48.686;15.598;2023-03-14T07:17:10;7.30;;;2.08;;
60211;SDS011;46079;48.686;15.598;2023-03-14T07:19:35;6.60;;;1.58;;
60211;SDS011;46079;48.686;15.598;2023-03-14T07:22:01;7.65;;;2.08;;
60211;SDS011;46079;48.686;15.598;2023-03-14T07:24:26;5.68;;;1.70;;
60211;SDS011;46079;48.686;15.598;2023-03-14T07:26:52;7.63;;;1.80;;
60211;SDS011;46079;48.686;15.598;2023-03-14T07:29:17;6.28;;;1.88;;
60211;SDS011;46079;48.686;15.598;2023-03-14T07:31:43;6.03;;;1.73;;
60211;SDS011;46079;48.686;15.598;2023-03-14T07:34:08;6.50;;;1.70;;
60211;SDS011;46079;48.686;15.598;2023-03-14T07:36:34;6.68;;;1.67;;
60211;SDS011;46079;48.686;15.598;2023-03-14T07:39:00;7.15;;;1.95;;
60211;SDS011;46079;48.686;15.598;2023-03-14T07:41:25;7.00;;;1.88;;
60211;SDS011;46079;48.686;15.598;2023-03-14T07:43:51;6.88;;;1.85;;
60211;SDS011;46079;48.686;15.598;2023-03-14T07:46:16;6.35;;;1.60;;
60211;SDS011;46079;48.686;15.598;2023-03-14T07:48:42;5.78;;;1.67;;
60211;SDS011;46079;48.686;15.598;2023-03-14T07:51:08;7.78;;;1.85;;
60211;SDS011;46079;48.686;15.598;2023-03-14T07:53:33;4.63;;;1.60;;
60211;SDS011;46079;48.686;15.598;2023-03-14T07:55:58;7.70;;;1.92;;
60211;SDS011;46079;48.686;15.598;2023-03-14T07:58:24;6.30;;;1.88;;
60211;SDS011;46079;48.686;15.598;2023-03-14T08:00:50;5.50;;;1.90;;
60211;SDS011;46079;48.686;15.598;2023-03-14T08:03:16;5.65;;;1.58;;
60211;SDS011;46079;48.686;15.598;2023-03-14T08:05:42;6.57;;;1.88;;
60211;SDS011;46079;48.686;15.598;2023-03-14T08:08:08;5.88;;;1.90;;
60211;SDS011;46079;48.686;15.598;2023-03-14T08:10:34;7.00;;;1.80;;
60211;SDS011;46079;48.686;15.598;2023-03-14T08:13:00;5.88;;;1.70;;
60211;SDS011;46079;48.686;15.598;2023-03-14T08:15:26;6.53;;;1.90;;
60211;SDS011;46079;48.686;15.598;2023-03-14T08:17:53;6.05;;;1.77;;
60211;SDS011;46079;48.686;15.598;2023-03-14T08:20:23;6.97;;;1.90;;
60211;SDS011;46079;48.686;15.598;2023-03-14T08:22:50;6.00;;;1.90;;
60211;SDS011;46079;48.686;15.598;2023-03-14T08:25:15;7.00;;;1.80;;
60211;SDS011;46079;48.686;15.598;2023-03-14T08:27:41;5.57;;;1.73;;
60211;SDS011;46079;48.686;15.598;2023-03-14T08:30:09;5.70;;;1.67;;
60211;SDS011;46079;48.686;15.598;2023-03-14T08:32:36;6.45;;;1.70;;
60211;SDS011;46079;48.686;15.598;2023-03-14T08:35:02;6.05;;;1.88;;
60211;SDS011;46079;48.686;15.598;2023-03-14T08:37:28;5.88;;;1.80;;
60211;SDS011;46079;48.686;15.598;2023-03-14T08:39:54;7.00;;;1.60;;
60211;SDS011;46079;48.686;15.598;2023-03-14T08:42:19;6.20;;;1.77;;
60211;SDS011;46079;48.686;15.598;2023-03-14T08:44:45;4.97;;;1.67;;
60211;SDS011;46079;48.686;15.598;2023-03-14T08:47:10;6.50;;;1.60;;
60211;SDS011;46079;48.686;15.598;2023-03-14T08:49:35;5.22;;;1.70;;
60211;SDS011;46079;48.686;15.598;2023-03-14T08:52:01;6.60;;;1.88;;
60211;SDS011;46079;48.686;15.598;2023-03-14T08:54:28;5.03;;;1.52;;
60211;SDS011;46079;48.686;15.598;2023-03-14T08:56:53;6.53;;;1.70;;
60211;SDS011;46079;48.686;15.598;2023-03-14T08:59:19;5.25;;;1.55;;
60211;SDS011;46079;48.686;15.598;2023-03-14T09:01:44;5.88;;;1.58;;
60211;SDS011;46079;48.686;15.598;2023-03-14T09:04:10;6.13;;;1.77;;
60211;SDS011;46079;48.686;15.598;2023-03-14T09:06:35;5.38;;;1.70;;
60211;SDS011;46079;48.686;15.598;2023-03-14T09:09:01;6.22;;;1.67;;
60211;SDS011;46079;48.686;15.598;2023-03-14T09:11:26;6.55;;;1.90;;
60211;SDS011;46079;48.686;15.598;2023-03-14T09:13:52;5.82;;;1.60;;
60211;SDS011;46079;48.686;15.598;2023-03-14T09:16:17;5.88;;;1.73;;
60211;SDS011;46079;48.686;15.598;2023-03-14T09:18:43;7.82;;;1.73;;
60211;SDS011;46079;48.686;15.598;2023-03-14T09:21:08;6.32;;;1.95;;
60211;SDS011;46079;48.686;15.598;2023-03-14T09:23:34;5.65;;;1.70;;
60211;SDS011;46079;48.686;15.598;2023-03-14T09:25:59;6.18;;;1.88;;
60211;SDS011;46079;48.686;15.598;2023-03-14T09:28:26;6.15;;;1.60;;
60211;SDS011;46079;48.686;15.598;2023-03-14T09:30:51;5.68;;;1.63;;
60211;SDS011;46079;48.686;15.598;2023-03-14T09:33:17;7.60;;;1.92;;
60211;SDS011;46079;48.686;15.598;2023-03-14T09:35:43;4.82;;;1.58;;
60211;SDS011;46079;48.686;15.598;2023-03-14T09:38:09;5.70;;;1.70;;
60211;SDS011;46079;48.686;15.598;2023-03-14T09:40:35;5.20;;;1.52;;
60211;SDS011;46079;48.686;15.598;2023-03-14T09:43:02;5.57;;;1.55;;
60211;SDS011;46079;48.686;15.598;2023-03-14T09:45:31;5.75;;;1.70;;
60211;SDS011;46079;48.686;15.598;2023-03-14T09:47:59;5.28;;;1.58;;
60211;SDS011;46079;48.686;15.598;2023-03-14T09:50:27;6.30;;;1.80;;
60211;SDS011;46079;48.686;15.598;2023-03-14T09:53:17;5.80;;;1.73;;
60211;SDS011;46079;48.686;15.598;2023-03-14T09:55:48;5.57;;;1.77;;
60211;SDS011;46079;48.686;15.598;2023-03-14T09:58:19;5.47;;;1.50;;
60211;SDS011;46079;48.686;15.598;2023-03-14T10:00:46;5.22;;;1.60;;
60211;SDS011;46079;48.686;15.598;2023-03-14T10:05:38;6.78;;;1.80;;
60211;SDS011;46079;48.686;15.598;2023-03-14T10:08:04;5.90;;;1.70;;
60211;SDS011;46079;48.686;15.598;2023-03-14T10:10:29;4.93;;;1.52;;
60211;SDS011;46079;48.686;15.598;2023-03-14T10:12:59;6.97;;;1.73;;
60211;SDS011;46079;48.686;15.598;2023-03-14T10:15:36;5.40;;;1.67;;
60211;SDS011;46079;48.686;15.598;2023-03-14T10:18:03;5.22;;;1.60;;
60211;SDS011;46079;48.686;15.598;2023-03-14T10:20:41;6.32;;;1.70;;
60211;SDS011;46079;48.686;15.598;2023-03-14T10:25:38;6.07;;;1.63;;
60211;SDS011;46079;48.686;15.598;2023-03-14T10:28:11;4.53;;;1.60;;
60211;SDS011;46079;48.686;15.598;2023-03-14T10:30:49;5.78;;;1.70;;
60211;SDS011;46079;48.686;15.598;2023-03-14T10:35:43;5.63;;;1.60;;
60211;SDS011;46079;48.686;15.598;2023-03-14T10:38:16;6.18;;;1.60;;
60211;SDS011;46079;48.686;15.598;2023-03-14T10:40:52;5.68;;;1.50;;
60211;SDS011;46079;48.686;15.598;2023-03-14T10:43:21;5.65;;;1.50;;
60211;SDS011;46079;48.686;15.598;2023-03-14T10:46:12;4.50;;;1.40;;
60211;SDS011;46079;48.686;15.598;2023-03-14T10:48:40;4.35;;;1.52;;
60211;SDS011;46079;48.686;15.598;2023-03-14T10:51:11;3.95;;;1.30;;
60211;SDS011;46079;48.686;15.598;2023-03-14T10:53:56;5.40;;;1.50;;
60211;SDS011;46079;48.686;15.598;2023-03-14T10:56:22;5.65;;;1.60;;
60211;SDS011;46079;48.686;15.598;2023-03-14T10:58:58;5.45;;;1.42;;
60211;SDS011;46079;48.686;15.598;2023-03-14T11:07:09;5.65;;;1.60;;
60211;SDS011;46079;48.686;15.598;2023-03-14T11:09:49;5.97;;;1.60;;
60211;SDS011;46079;48.686;15.598;2023-03-14T11:15:11;5.40;;;1.60;;
60211;SDS011;46079;48.686;15.598;2023-03-14T11:20:42;5.55;;;1.60;;
60211;SDS011;46079;48.686;15.598;2023-03-14T11:28:23;5.20;;;1.60;;
60211;SDS011;46079;48.686;15.598;2023-03-14T11:30:55;5.57;;;1.60;;
60211;SDS011;46079;48.686;15.598;2023-03-14T11:33:44;5.63;;;1.73;;
60211;SDS011;46079;48.686;15.598;2023-03-14T11:36:11;5.40;;;1.50;;
60211;SDS011;46079;48.686;15.598;2023-03-14T11:38:58;5.88;;;1.80;;
60211;SDS011;46079;48.686;15.598;2023-03-14T11:41:35;5.43;;;1.88;;
60211;SDS011;46079;48.686;15.598;2023-03-14T11:47:10;4.75;;;1.45;;
60211;SDS011;46079;48.686;15.598;2023-03-14T11:49:45;6.47;;;1.70;;
60211;SDS011;46079;48.686;15.598;2023-03-14T11:52:20;5.70;;;1.70;;
60211;SDS011;46079;48.686;15.598;2023-03-14T11:54:52;5.78;;;1.80;;
60211;SDS011;46079;48.686;15.598;2023-03-14T11:57:24;6.18;;;2.08;;
60211;SDS011;46079;48.686;15.598;2023-03-14T12:02:39;5.25;;;1.80;;
60211;SDS011;46079;48.686;15.598;2023-03-14T12:11:00;6.60;;;1.80;;
60211;SDS011;46079;48.686;15.598;2023-03-14T12:13:33;6.15;;;1.80;;
60211;SDS011;46079;48.686;15.598;2023-03-14T12:16:04;6.75;;;2.00;;
60211;SDS011;46079;48.686;15.598;2023-03-14T12:18:32;5.32;;;1.70;;
60211;SDS011;46079;48.686;15.598;2023-03-14T12:21:07;5.70;;;1.70;;
60211;SDS011;46079;48.686;15.598;2023-03-14T12:23:44;6.13;;;1.98;;
60211;SDS011;46079;48.686;15.598;2023-03-14T12:26:19;6.05;;;1.90;;
60211;SDS011;46079;48.686;15.598;2023-03-14T12:50:54;6.85;;;1.80;;
60211;SDS011;46079;48.686;15.598;2023-03-14T12:53:40;5.20;;;1.58;;
60211;SDS011;46079;48.686;15.598;2023-03-14T12:59:33;5.38;;;1.58;;
60211;SDS011;46079;48.686;15.598;2023-03-14T13:04:32;4.47;;;1.50;;
60211;SDS011;46079;48.686;15.598;2023-03-14T13:07:00;5.68;;;1.60;;
60211;SDS011;46079;48.686;15.598;2023-03-14T13:11:53;4.70;;;1.52;;
60211;SDS011;46079;48.686;15.598;2023-03-14T13:14:18;6.10;;;1.88;;
60211;SDS011;46079;48.686;15.598;2023-03-14T13:16:44;5.80;;;1.60;;
60211;SDS011;46079;48.686;15.598;2023-03-14T13:19:24;6.20;;;1.60;;
60211;SDS011;46079;48.686;15.598;2023-03-14T13:22:02;6.47;;;1.83;;
60211;SDS011;46079;48.686;15.598;2023-03-14T13:24:32;5.40;;;1.67;;
60211;SDS011;46079;48.686;15.598;2023-03-14T13:26:59;4.95;;;1.42;;
60211;SDS011;46079;48.686;15.598;2023-03-14T13:29:27;5.70;;;1.60;;
60211;SDS011;46079;48.686;15.598;2023-03-14T13:31:54;6.13;;;1.77;;
60211;SDS011;46079;48.686;15.598;2023-03-14T13:34:31;6.07;;;1.70;;
60211;SDS011;46079;48.686;15.598;2023-03-14T13:36:58;6.10;;;1.60;;
60211;SDS011;46079;48.686;15.598;2023-03-14T13:39:26;6.85;;;1.73;;
60211;SDS011;46079;48.686;15.598;2023-03-14T13:41:54;5.70;;;1.50;;
60211;SDS011;46079;48.686;15.598;2023-03-14T13:44:37;6.00;;;1.67;;
60211;SDS011;46079;48.686;15.598;2023-03-14T13:47:05;6.07;;;1.70;;
60211;SDS011;46079;48.686;15.598;2023-03-14T13:49:36;5.15;;;1.40;;
60211;SDS011;46079;48.686;15.598;2023-03-14T13:52:03;5.05;;;1.60;;
60211;SDS011;46079;48.686;15.598;2023-03-14T13:54:46;6.85;;;1.73;;
60211;SDS011;46079;48.686;15.598;2023-03-14T13:57:11;6.55;;;1.52;;
60211;SDS011;46079;48.686;15.598;2023-03-14T13:59:36;6.25;;;1.80;;
60211;SDS011;46079;48.686;15.598;2023-03-14T14:02:09;7.50;;;1.92;;
60211;SDS011;46079;48.686;15.598;2023-03-14T14:04:39;6.75;;;1.65;;
60211;SDS011;46079;48.686;15.598;2023-03-14T14:07:13;7.05;;;1.73;;
60211;SDS011;46079;48.686;15.598;2023-03-14T14:09:44;5.78;;;1.70;;
60211;SDS011;46079;48.686;15.598;2023-03-14T14:17:14;7.50;;;1.85;;
60211;SDS011;46079;48.686;15.598;2023-03-14T14:19:43;8.83;;;2.27;;
60211;SDS011;46079;48.686;15.598;2023-03-14T14:22:09;7.05;;;1.70;;
60211;SDS011;46079;48.686;15.598;2023-03-14T14:24:36;7.15;;;1.85;;
60211;SDS011;46079;48.686;15.598;2023-03-14T14:27:16;6.55;;;1.83;;
60211;SDS011;46079;48.686;15.598;2023-03-14T14:29:59;7.10;;;1.60;;
60211;SDS011;46079;48.686;15.598;2023-03-14T14:32:26;6.85;;;1.83;;
60211;SDS011;46079;48.686;15.598;2023-03-14T14:37:33;7.60;;;2.10;;
60211;SDS011;46079;48.686;15.598;2023-03-14T14:40:06;6.35;;;1.80;;
60211;SDS011;46079;48.686;15.598;2023-03-14T14:42:35;8.13;;;2.15;;
60211;SDS011;46079;48.686;15.598;2023-03-14T14:45:05;7.20;;;1.80;;
60211;SDS011;46079;48.686;15.598;2023-03-14T14:47:47;7.22;;;1.65;;
60211;SDS011;46079;48.686;15.598;2023-03-14T14:50:28;7.63;;;1.90;;
60211;SDS011;46079;48.686;15.598;2023-03-14T14:53:00;7.05;;;1.67;;
60211;SDS011;46079;48.686;15.598;2023-03-14T14:55:32;8.27;;;1.80;;
60211;SDS011;46079;48.686;15.598;2023-03-14T14:58:10;8.63;;;1.92;;
60211;SDS011;46079;48.686;15.598;2023-03-14T15:00:49;7.45;;;2.05;;
60211;SDS011;46079;48.686;15.598;2023-03-14T15:03:18;7.85;;;2.03;;
60211;SDS011;46079;48.686;15.598;2023-03-14T15:05:43;6.97;;;1.90;;
60211;SDS011;46079;48.686;15.598;2023-03-14T15:08:09;7.47;;;1.90;;
60211;SDS011;46079;48.686;15.598;2023-03-14T15:10:36;8.20;;;2.03;;
60211;SDS011;46079;48.686;15.598;2023-03-14T15:13:01;8.13;;;1.90;;
60211;SDS011;46079;48.686;15.598;2023-03-14T15:15:27;6.97;;;1.80;;
60211;SDS011;46079;48.686;15.598;2023-03-14T15:17:52;6.85;;;1.50;;
60211;SDS011;46079;48.686;15.598;2023-03-14T15:20:18;7.47;;;1.70;;
60211;SDS011;46079;48.686;15.598;2023-03-14T15:22:44;6.93;;;1.70;;
60211;SDS011;46079;48.686;15.598;2023-03-14T15:25:10;8.00;;;1.80;;
60211;SDS011;46079;48.686;15.598;2023-03-14T15:27:37;6.75;;;1.63;;
60211;SDS011;46079;48.686;15.598;2023-03-14T15:30:11;8.07;;;1.80;;
60211;SDS011;46079;48.686;15.598;2023-03-14T15:32:37;7.35;;;2.10;;
60211;SDS011;46079;48.686;15.598;2023-03-14T15:35:03;6.97;;;1.60;;
60211;SDS011;46079;48.686;15.598;2023-03-14T15:37:28;6.90;;;1.75;;
60211;SDS011;46079;48.686;15.598;2023-03-14T15:39:57;6.85;;;1.70;;
60211;SDS011;46079;48.686;15.598;2023-03-14T15:42:23;5.32;;;1.50;;
60211;SDS011;46079;48.686;15.598;2023-03-14T15:44:48;8.02;;;1.90;;
60211;SDS011;46079;48.686;15.598;2023-03-14T15:47:14;7.30;;;2.10;;
60211;SDS011;46079;48.686;15.598;2023-03-14T15:49:39;6.05;;;1.52;;
60211;SDS011;46079;48.686;15.598;2023-03-14T15:52:05;6.40;;;1.88;;
60211;SDS011;46079;48.686;15.598;2023-03-14T15:54:32;8.05;;;2.28;;
60211;SDS011;46079;48.686;15.598;2023-03-14T15:56:58;6.55;;;1.70;;
60211;SDS011;46079;48.686;15.598;2023-03-14T15:59:23;7.32;;;1.60;;
60211;SDS011;46079;48.686;15.598;2023-03-14T16:01:49;6.50;;;1.48;;